createdAt,value
2022-08-30T00:00:27.872Z,10.27
2022-08-30T00:02:56.782Z,12.73
2022-08-30T00:05:25.961Z,11.10
2022-08-30T00:07:56.212Z,11.00
2022-08-30T00:10:26.712Z,9.93
2022-08-30T00:12:55.585Z,10.40
2022-08-30T00:15:25.521Z,10.67
2022-08-30T00:17:54.113Z,11.20
2022-08-30T00:20:26.565Z,9.73
2022-08-30T00:22:56.852Z,10.20
2022-08-30T00:25:26.070Z,9.70
2022-08-30T00:27:54.706Z,9.50
2022-08-30T00:30:23.651Z,11.00
2022-08-30T00:32:52.155Z,10.60
2022-08-30T00:35:21.558Z,10.30
2022-08-30T00:37:51.262Z,9.83
2022-08-30T00:40:24.892Z,9.10
2022-08-30T00:42:59.645Z,10.03
2022-08-30T00:45:31.210Z,9.80
2022-08-30T00:47:59.818Z,10.57
2022-08-30T00:50:33.677Z,11.07
2022-08-30T00:53:05.612Z,10.67
2022-08-30T00:55:38.997Z,11.20
2022-08-30T00:58:16.762Z,10.30
2022-08-30T01:00:45.899Z,11.40
2022-08-30T01:03:14.524Z,10.97
2022-08-30T01:05:43.835Z,11.53
2022-08-30T01:08:12.418Z,11.43
2022-08-30T01:10:42.648Z,10.67
2022-08-30T01:13:12.998Z,12.07
2022-08-30T01:15:42.077Z,10.60
2022-08-30T01:18:11.572Z,11.30
2022-08-30T01:20:49.272Z,12.97
2022-08-30T01:23:21.690Z,13.37
2022-08-30T01:25:53.609Z,10.77
2022-08-30T01:28:24.896Z,12.10
2022-08-30T01:30:54.253Z,12.07
2022-08-30T01:33:23.811Z,12.17
2022-08-30T01:35:54.424Z,11.03
2022-08-30T01:38:28.232Z,10.53
2022-08-30T01:41:01.124Z,11.43
2022-08-30T01:43:29.737Z,11.57
2022-08-30T01:45:58.285Z,11.80
2022-08-30T01:48:30.991Z,11.40
2022-08-30T01:51:00.102Z,11.70
2022-08-30T01:53:30.319Z,10.77
2022-08-30T01:55:58.923Z,12.17
2022-08-30T01:58:28.591Z,11.87
2022-08-30T02:00:57.331Z,12.23
2022-08-30T02:03:26.496Z,12.07
2022-08-30T02:05:55.266Z,12.00
2022-08-30T02:08:24.115Z,11.03
2022-08-30T02:10:54.951Z,12.07
2022-08-30T02:13:24.154Z,11.47
2022-08-30T02:15:54.486Z,12.63
2022-08-30T02:18:24.135Z,12.10
2022-08-30T02:20:53.195Z,11.77
2022-08-30T02:23:21.793Z,11.10
2022-08-30T02:25:50.346Z,11.07
2022-08-30T02:28:20.337Z,11.67
2022-08-30T02:30:49.256Z,11.10
2022-08-30T02:33:17.926Z,11.00
2022-08-30T02:35:46.752Z,11.53
2022-08-30T02:38:15.842Z,11.07
2022-08-30T02:40:48.514Z,11.60
2022-08-30T02:43:17.556Z,11.83
2022-08-30T02:45:48.089Z,11.50
2022-08-30T02:48:17.309Z,12.10
2022-08-30T02:50:48.212Z,11.20
2022-08-30T02:53:17.312Z,10.23
2022-08-30T02:55:46.742Z,10.00
2022-08-30T02:58:15.921Z,10.13
2022-08-30T03:00:46.222Z,10.90
2022-08-30T03:03:15.032Z,12.13
2022-08-30T03:05:43.856Z,12.73
2022-08-30T03:08:12.793Z,10.10
2022-08-30T03:10:41.474Z,10.90
2022-08-30T03:13:10.387Z,13.50
2022-08-30T03:15:40.721Z,11.37
2022-08-30T03:18:11.650Z,10.57
2022-08-30T03:20:42.253Z,11.73
2022-08-30T03:23:21.556Z,11.83
2022-08-30T03:25:51.426Z,12.60
2022-08-30T03:28:20.173Z,13.10
2022-08-30T03:30:49.148Z,11.93
2022-08-30T03:33:20.105Z,13.17
2022-08-30T03:35:50.841Z,12.13
2022-08-30T03:38:20.224Z,11.90
2022-08-30T03:40:49.323Z,11.30
2022-08-30T03:43:18.307Z,11.20
2022-08-30T03:45:47.186Z,11.90
2022-08-30T03:48:16.229Z,13.10
2022-08-30T03:50:46.453Z,13.00
2022-08-30T03:53:15.679Z,11.57
2022-08-30T03:55:44.672Z,12.57
2022-08-30T03:58:14.434Z,12.67
2022-08-30T04:00:48.212Z,12.63
2022-08-30T04:03:18.770Z,11.80
2022-08-30T04:05:49.335Z,11.10
2022-08-30T04:08:17.939Z,12.10
2022-08-30T04:10:46.450Z,12.23
2022-08-30T04:13:15.315Z,11.67
2022-08-30T04:15:44.287Z,10.60
2022-08-30T04:18:13.325Z,10.60
2022-08-30T04:20:42.130Z,11.80
2022-08-30T04:23:13.586Z,12.93
2022-08-30T04:25:43.122Z,11.10
2022-08-30T04:28:12.541Z,11.00
2022-08-30T04:30:43.649Z,10.63
2022-08-30T04:33:13.925Z,12.13
2022-08-30T04:35:43.816Z,12.00
2022-08-30T04:38:14.476Z,11.33
2022-08-30T04:40:45.064Z,11.70
2022-08-30T04:43:14.257Z,10.37
2022-08-30T04:45:43.698Z,11.40
2022-08-30T04:48:16.197Z,11.10
2022-08-30T04:50:46.378Z,10.70
2022-08-30T04:53:17.325Z,10.93
2022-08-30T04:55:46.878Z,9.10
2022-08-30T04:58:15.595Z,9.60
2022-08-30T05:00:45.997Z,9.90
2022-08-30T05:03:18.925Z,9.93
2022-08-30T05:05:50.428Z,11.23
2022-08-30T05:08:24.815Z,11.10
2022-08-30T05:10:54.855Z,10.83
2022-08-30T05:13:35.107Z,9.07
2022-08-30T05:16:07.179Z,8.80
2022-08-30T05:18:36.522Z,8.70
2022-08-30T05:21:07.690Z,8.07
2022-08-30T05:23:38.080Z,19.17
2022-08-30T05:26:08.614Z,7.60
2022-08-30T05:28:37.813Z,7.13
2022-08-30T05:31:15.968Z,7.30
2022-08-30T05:33:45.054Z,6.80
2022-08-30T05:36:15.774Z,7.90
2022-08-30T05:38:46.251Z,7.00
2022-08-30T05:41:15.462Z,7.60
2022-08-30T05:43:45.894Z,7.37
2022-08-30T05:46:19.477Z,7.47
2022-08-30T05:48:49.042Z,7.50
2022-08-30T05:51:21.564Z,7.27
2022-08-30T05:53:53.702Z,6.67
2022-08-30T05:56:25.224Z,7.57
2022-08-30T05:58:54.919Z,8.60
2022-08-30T06:01:25.950Z,7.20
2022-08-30T06:03:57.637Z,7.73
2022-08-30T06:06:29.950Z,7.13
2022-08-30T06:09:00.234Z,7.13
2022-08-30T06:11:29.898Z,8.10
2022-08-30T06:13:58.577Z,7.20
2022-08-30T06:16:29.119Z,7.83
2022-08-30T06:19:00.165Z,7.60
2022-08-30T06:21:31.593Z,7.20
2022-08-30T06:24:01.628Z,7.47
2022-08-30T06:29:04.855Z,8.20
2022-08-30T06:31:34.814Z,7.40
2022-08-30T06:34:03.536Z,7.87
2022-08-30T06:36:32.561Z,6.40
2022-08-30T06:39:03.132Z,6.60
2022-08-30T06:41:34.640Z,7.27
2022-08-30T06:44:04.537Z,7.20
2022-08-30T06:46:35.808Z,8.90
2022-08-30T06:49:06.218Z,7.63
2022-08-30T06:51:37.479Z,8.33
2022-08-30T06:54:12.025Z,8.60
2022-08-30T06:56:48.720Z,9.23
2022-08-30T06:59:27.124Z,8.57
2022-08-30T07:01:56.915Z,8.57
2022-08-30T07:04:26.403Z,7.53
2022-08-30T07:06:54.987Z,8.60
2022-08-30T07:09:24.905Z,9.80
2022-08-30T07:11:53.906Z,8.30
2022-08-30T07:14:23.228Z,8.60
2022-08-30T07:16:52.139Z,8.93
2022-08-30T07:19:21.156Z,7.90
2022-08-30T07:21:50.711Z,8.40
2022-08-30T07:24:20.088Z,8.80
2022-08-30T07:26:52.024Z,7.70
2022-08-30T07:29:21.832Z,8.30
2022-08-30T07:31:50.625Z,7.93
2022-08-30T07:34:22.345Z,7.90
2022-08-30T07:36:52.217Z,7.57
2022-08-30T07:39:20.935Z,8.47
2022-08-30T07:41:50.921Z,9.00
2022-08-30T07:44:19.979Z,8.83
2022-08-30T07:46:53.727Z,8.10
2022-08-30T07:49:22.457Z,8.77
2022-08-30T07:51:51.946Z,8.40
2022-08-30T07:54:20.482Z,10.03
2022-08-30T07:56:50.949Z,8.80
2022-08-30T07:59:19.506Z,8.40
2022-08-30T08:01:48.111Z,8.70
2022-08-30T08:04:16.987Z,10.10
2022-08-30T08:06:45.647Z,8.47
2022-08-30T08:09:14.315Z,8.47
2022-08-30T08:11:42.846Z,8.27
2022-08-30T08:14:12.828Z,7.57
2022-08-30T08:16:42.388Z,7.07
2022-08-30T08:19:11.251Z,7.33
2022-08-30T08:21:39.889Z,8.57
2022-08-30T08:24:09.197Z,8.33
2022-08-30T08:26:41.033Z,7.83
2022-08-30T08:29:15.444Z,8.33
2022-08-30T08:31:45.833Z,8.97
2022-08-30T08:34:14.871Z,9.77
2022-08-30T08:36:43.321Z,9.60
2022-08-30T08:39:11.884Z,10.97
2022-08-30T08:41:54.008Z,11.27
2022-08-30T08:44:38.353Z,10.00
2022-08-30T08:47:13.937Z,10.90
2022-08-30T08:49:46.275Z,6.60
2022-08-30T08:52:38.703Z,8.50
2022-08-30T08:55:12.254Z,8.90
2022-08-30T08:57:42.040Z,8.07
2022-08-30T09:00:15.672Z,8.20
2022-08-30T09:02:47.304Z,7.50
2022-08-30T09:05:19.427Z,7.03
2022-08-30T09:07:52.088Z,7.87
2022-08-30T09:10:40.388Z,9.00
2022-08-30T09:13:13.708Z,7.37
2022-08-30T09:15:43.972Z,8.20
2022-08-30T09:18:19.348Z,8.03
2022-08-30T09:20:50.751Z,7.37
2022-08-30T09:23:27.326Z,8.70
2022-08-30T09:25:59.343Z,9.00
2022-08-30T09:28:31.057Z,8.50
2022-08-30T09:31:10.043Z,6.17
2022-08-30T09:33:40.552Z,8.00
2022-08-30T09:36:21.016Z,7.60
2022-08-30T09:39:01.091Z,7.53
2022-08-30T09:41:40.051Z,8.80
2022-08-30T09:44:15.206Z,6.93
2022-08-30T09:46:51.065Z,5.00
2022-08-30T09:49:38.015Z,6.33
2022-08-30T09:52:18.482Z,7.13
2022-08-30T09:55:01.065Z,5.37
2022-08-30T09:57:37.115Z,5.10
2022-08-30T10:00:10.142Z,6.10
2022-08-30T10:02:52.922Z,6.30
2022-08-30T10:05:28.540Z,6.17
2022-08-30T10:08:09.934Z,5.37
2022-08-30T10:10:48.064Z,5.37
2022-08-30T10:13:37.467Z,6.40
2022-08-30T10:16:14.856Z,6.03
2022-08-30T10:18:53.004Z,7.90
2022-08-30T10:21:28.188Z,5.23
2022-08-30T10:24:02.498Z,6.67
2022-08-30T10:26:36.059Z,6.57
2022-08-30T10:29:11.762Z,5.87
2022-08-30T10:31:47.371Z,6.60
2022-08-30T10:34:22.015Z,6.80
2022-08-30T10:36:56.097Z,6.00
2022-08-30T10:39:30.899Z,7.07
2022-08-30T10:42:04.274Z,6.33
2022-08-30T10:44:38.820Z,4.30
2022-08-30T10:47:23.301Z,4.13
2022-08-30T10:50:04.007Z,4.90
2022-08-30T10:52:37.889Z,4.20
2022-08-30T10:55:19.011Z,4.70
2022-08-30T10:57:47.616Z,5.30
2022-08-30T11:00:23.735Z,4.67
2022-08-30T11:03:25.682Z,4.30
2022-08-30T11:06:07.365Z,3.97
2022-08-30T11:09:03.003Z,3.57
2022-08-30T11:11:42.785Z,3.60
2022-08-30T11:14:15.397Z,3.23
2022-08-30T11:16:48.366Z,3.60
2022-08-30T11:19:21.987Z,6.30
2022-08-30T11:21:53.261Z,4.90
2022-08-30T11:24:23.352Z,4.90
2022-08-30T11:27:00.999Z,6.57
2022-08-30T11:29:33.746Z,5.53
2022-08-30T11:32:23.623Z,4.63
2022-08-30T11:35:01.719Z,3.60
2022-08-30T11:37:39.301Z,4.20
2022-08-30T11:40:37.153Z,4.17
2022-08-30T11:43:50.936Z,4.90
2022-08-30T11:46:36.538Z,4.30
2022-08-30T11:49:41.731Z,4.87
2022-08-30T11:52:26.882Z,5.50
2022-08-30T11:55:24.185Z,3.50
2022-08-30T11:58:00.057Z,5.43
2022-08-30T12:00:34.833Z,4.90
2022-08-30T12:03:06.294Z,6.63
2022-08-30T12:05:59.022Z,6.33
2022-08-30T12:08:59.350Z,4.90
2022-08-30T12:11:56.355Z,5.07
2022-08-30T12:14:48.867Z,4.80
2022-08-30T12:17:47.957Z,5.00
2022-08-30T12:20:26.111Z,5.00
2022-08-30T12:22:56.048Z,5.27
2022-08-30T12:25:30.670Z,4.30
2022-08-30T12:28:21.600Z,3.30
2022-08-30T12:30:52.495Z,3.80
2022-08-30T12:33:36.594Z,4.90
2022-08-30T12:36:14.588Z,5.13
2022-08-30T12:38:43.437Z,3.93
2022-08-30T12:41:22.655Z,5.70
2022-08-30T12:43:53.790Z,3.87
2022-08-30T12:46:23.523Z,4.47
2022-08-30T12:48:52.494Z,4.93
2022-08-30T12:51:38.697Z,4.30
2022-08-30T12:54:17.408Z,4.47
2022-08-30T12:57:03.679Z,4.13
2022-08-30T12:59:55.360Z,4.20
2022-08-30T13:02:26.177Z,4.70
2022-08-30T13:04:56.714Z,5.47
2022-08-30T13:07:34.659Z,3.63
2022-08-30T13:10:19.415Z,3.77
2022-08-30T13:13:02.535Z,4.83
2022-08-30T13:15:35.885Z,4.50
2022-08-30T13:18:26.658Z,4.57
2022-08-30T13:21:12.904Z,4.03
2022-08-30T13:23:41.740Z,4.00
2022-08-30T13:26:11.538Z,4.70
2022-08-30T13:28:50.539Z,5.20
2022-08-30T13:31:21.104Z,5.13
2022-08-30T13:33:53.469Z,3.30
2022-08-30T13:36:24.690Z,4.97
2022-08-30T13:38:53.929Z,3.83
2022-08-30T13:41:23.483Z,4.80
2022-08-30T13:46:48.546Z,4.63
2022-08-30T13:52:22.902Z,4.50
2022-08-30T13:54:53.638Z,4.80
2022-08-30T14:00:19.365Z,4.60
2022-08-30T14:02:55.167Z,4.13
2022-08-30T14:11:05.961Z,4.63
2022-08-30T14:13:35.752Z,4.77
2022-08-30T14:18:59.323Z,4.60
2022-08-30T14:21:28.883Z,4.80
2022-08-30T14:23:58.804Z,5.03
2022-08-30T14:26:32.485Z,3.40
2022-08-30T14:29:03.191Z,4.43
2022-08-30T14:31:32.665Z,3.87
2022-08-30T14:34:05.332Z,4.47
2022-08-30T14:36:36.188Z,3.97
2022-08-30T14:39:08.708Z,4.03
2022-08-30T14:41:43.766Z,4.70
2022-08-30T14:44:13.256Z,3.80
2022-08-30T14:46:42.310Z,4.10
2022-08-30T14:49:13.821Z,3.73
2022-08-30T14:51:42.962Z,4.40
2022-08-30T14:54:13.080Z,7.80
2022-08-30T14:56:42.944Z,4.07
2022-08-30T14:59:17.120Z,3.97
2022-08-30T15:01:46.843Z,3.80
2022-08-30T15:04:17.754Z,3.87
2022-08-30T15:06:49.850Z,3.37
2022-08-30T15:09:23.444Z,3.33
2022-08-30T15:11:58.762Z,3.07
2022-08-30T15:14:28.765Z,3.10
2022-08-30T15:17:03.000Z,3.00
2022-08-30T15:19:34.150Z,3.50
2022-08-30T15:22:05.080Z,3.37
2022-08-30T15:27:24.520Z,3.43
2022-08-30T15:29:53.132Z,3.20
2022-08-30T15:32:21.898Z,3.80
2022-08-30T15:34:55.772Z,3.77
2022-08-30T15:37:24.858Z,3.43
2022-08-30T15:39:54.393Z,3.70
2022-08-30T15:42:23.001Z,3.30
2022-08-30T15:44:56.170Z,3.20
2022-08-30T15:47:26.512Z,3.40
2022-08-30T15:49:59.496Z,2.93
2022-08-30T15:52:35.214Z,3.87
2022-08-30T15:55:04.210Z,3.00
2022-08-30T15:57:35.807Z,3.20
2022-08-30T16:00:06.569Z,3.60
2022-08-30T16:02:35.396Z,2.87
2022-08-30T16:05:06.503Z,2.65
2022-08-30T16:07:39.925Z,3.40
2022-08-30T16:10:10.654Z,3.13
2022-08-30T16:12:39.353Z,2.93
2022-08-30T16:15:08.953Z,2.70
2022-08-30T16:17:37.679Z,3.23
2022-08-30T16:20:11.854Z,3.20
2022-08-30T16:22:40.748Z,2.70
2022-08-30T16:25:14.900Z,2.83
2022-08-30T16:27:44.140Z,3.33
2022-08-30T16:30:14.157Z,3.20
2022-08-30T16:32:42.921Z,3.17
2022-08-30T16:35:13.107Z,2.87
2022-08-30T16:37:41.853Z,3.20
2022-08-30T16:40:11.705Z,2.00
2022-08-30T16:42:40.850Z,2.60
2022-08-30T16:45:11.142Z,2.30
2022-08-30T16:47:39.874Z,2.97
2022-08-30T16:50:10.633Z,2.77
2022-08-30T16:52:44.215Z,2.87
2022-08-30T16:55:13.041Z,2.90
2022-08-30T16:57:41.769Z,2.30
2022-08-30T17:00:14.044Z,2.67
2022-08-30T17:02:53.395Z,3.00
2022-08-30T17:05:22.620Z,2.90
2022-08-30T17:07:53.791Z,2.93
2022-08-30T17:10:26.255Z,2.97
2022-08-30T17:13:00.473Z,3.00
2022-08-30T17:15:29.356Z,2.83
2022-08-30T17:17:57.990Z,2.30
2022-08-30T17:20:31.228Z,2.83
2022-08-30T17:23:03.408Z,2.80
2022-08-30T17:25:34.164Z,3.00
2022-08-30T17:28:02.873Z,2.90
2022-08-30T17:30:32.140Z,3.60
2022-08-30T17:33:01.007Z,5.20
2022-08-30T17:35:29.698Z,48.97
2022-08-30T17:37:59.207Z,53.43
2022-08-30T17:40:29.615Z,22.27
2022-08-30T17:42:58.365Z,17.30
2022-08-30T17:45:27.055Z,12.10
2022-08-30T17:47:57.458Z,12.33
2022-08-30T17:50:28.089Z,4.17
2022-08-30T17:52:57.727Z,4.53
2022-08-30T17:55:30.828Z,4.43
2022-08-30T17:58:00.868Z,3.33
2022-08-30T18:00:29.605Z,4.03
2022-08-30T18:02:58.332Z,4.97
2022-08-30T18:05:27.177Z,3.80
2022-08-30T18:07:55.987Z,4.10
2022-08-30T18:10:26.785Z,3.90
2022-08-30T18:13:04.596Z,3.73
2022-08-30T18:15:33.681Z,3.90
2022-08-30T18:18:04.171Z,3.47
2022-08-30T18:20:33.731Z,3.20
2022-08-30T18:23:03.583Z,3.63
2022-08-30T18:25:32.432Z,3.87
2022-08-30T18:28:01.099Z,3.00
2022-08-30T18:30:34.737Z,3.47
2022-08-30T18:33:08.855Z,3.17
2022-08-30T18:35:42.933Z,4.70
2022-08-30T18:38:14.149Z,6.70
2022-08-30T18:40:43.771Z,8.27
2022-08-30T18:43:12.878Z,4.27
2022-08-30T18:45:46.572Z,3.70
2022-08-30T18:48:18.166Z,4.03
2022-08-30T18:50:47.504Z,4.00
2022-08-30T18:53:28.407Z,4.53
2022-08-30T18:55:58.365Z,4.73
2022-08-30T18:58:27.046Z,4.53
2022-08-30T19:00:57.341Z,4.40
2022-08-30T19:03:26.109Z,4.40
2022-08-30T19:06:05.036Z,4.97
2022-08-30T19:08:35.199Z,5.03
2022-08-30T19:13:54.524Z,4.47
2022-08-30T19:16:33.864Z,5.67
2022-08-30T19:19:05.646Z,5.40
2022-08-30T19:21:35.611Z,6.40
2022-08-30T19:24:05.396Z,6.30
2022-08-30T19:26:38.384Z,5.57
2022-08-30T19:29:07.926Z,5.50
2022-08-30T19:31:38.585Z,6.70
2022-08-30T19:34:07.978Z,8.37
2022-08-30T19:36:37.039Z,6.63
2022-08-30T19:39:06.019Z,6.70
2022-08-30T19:41:35.376Z,6.50
2022-08-30T19:44:05.279Z,6.30
2022-08-30T19:46:34.508Z,6.77
2022-08-30T19:49:10.144Z,6.23
2022-08-30T19:51:51.757Z,7.10
2022-08-30T19:54:21.293Z,7.13
2022-08-30T19:56:50.440Z,6.90
2022-08-30T19:59:20.422Z,6.87
2022-08-30T20:01:50.132Z,6.97
2022-08-30T20:04:20.483Z,6.20
2022-08-30T20:06:49.639Z,6.43
2022-08-30T20:09:18.905Z,8.63
2022-08-30T20:11:49.186Z,8.23
2022-08-30T20:14:24.031Z,7.23
2022-08-30T20:16:53.509Z,7.80
2022-08-30T20:19:27.371Z,7.53
2022-08-30T20:22:05.547Z,8.50
2022-08-30T20:24:31.998Z,5.00
2022-08-30T20:24:37.977Z,8.40
2022-08-30T20:27:08.555Z,8.00
2022-08-30T20:29:37.915Z,8.30
2022-08-30T20:32:07.547Z,8.10
2022-08-30T20:34:38.396Z,8.47
2022-08-30T20:37:08.170Z,9.37
2022-08-30T20:39:37.722Z,8.87
2022-08-30T20:42:07.038Z,8.83
2022-08-30T20:44:35.823Z,7.77
2022-08-30T20:47:05.413Z,8.97
2022-08-30T20:49:35.522Z,7.90
2022-08-30T20:52:06.244Z,7.93
2022-08-30T20:54:38.556Z,7.97
2022-08-30T20:57:07.722Z,8.10
2022-08-30T20:59:36.793Z,7.73
2022-08-30T21:02:06.258Z,7.00
2022-08-30T21:04:35.131Z,7.37
2022-08-30T21:07:05.301Z,6.47
2022-08-30T21:09:34.085Z,6.97
2022-08-30T21:12:03.210Z,6.40
2022-08-30T21:14:31.886Z,6.20
2022-08-30T21:17:00.811Z,4.93
2022-08-30T21:19:29.639Z,7.60
2022-08-30T21:21:58.212Z,6.20
2022-08-30T21:24:28.552Z,6.77
2022-08-30T21:26:57.506Z,6.73
2022-08-30T21:29:26.384Z,6.77
2022-08-30T21:31:55.609Z,7.17
2022-08-30T21:34:24.771Z,7.20
2022-08-30T21:36:52.402Z,6.50
2022-08-30T21:39:23.284Z,6.47
2022-08-30T21:41:56.997Z,7.10
2022-08-30T21:44:27.796Z,7.40
2022-08-30T21:46:57.120Z,6.10
2022-08-30T21:49:26.125Z,6.30
2022-08-30T21:51:56.554Z,6.70
2022-08-30T21:54:31.315Z,6.40
2022-08-30T21:57:05.272Z,7.13
2022-08-30T21:59:34.205Z,6.90
2022-08-30T22:02:02.874Z,5.70
2022-08-30T22:04:31.541Z,6.40
2022-08-30T22:07:00.334Z,6.20
2022-08-30T22:09:29.040Z,6.37
2022-08-30T22:11:57.632Z,6.00
2022-08-30T22:14:28.939Z,6.73
2022-08-30T22:16:57.643Z,6.00
2022-08-30T22:19:26.295Z,7.60
2022-08-30T22:22:00.658Z,7.73
2022-08-30T22:24:32.516Z,7.30
2022-08-30T22:27:02.566Z,7.87
2022-08-30T22:29:32.687Z,6.30
2022-08-30T22:32:01.601Z,7.70
2022-08-30T22:34:31.938Z,7.33
2022-08-30T22:37:00.965Z,6.20
2022-08-30T22:39:29.623Z,8.03
2022-08-30T22:41:58.226Z,7.27
2022-08-30T22:44:26.890Z,6.57
2022-08-30T22:46:56.860Z,9.00
2022-08-30T22:49:26.233Z,6.63
2022-08-30T22:51:54.906Z,11.10
2022-08-30T22:54:23.640Z,8.07
2022-08-30T22:56:52.291Z,8.00
2022-08-30T22:59:20.915Z,8.37
2022-08-30T23:02:01.102Z,6.87
2022-08-30T23:04:30.178Z,7.93
2022-08-30T23:06:58.796Z,7.37
2022-08-30T23:09:29.042Z,9.47
2022-08-30T23:11:58.149Z,10.87
2022-08-30T23:14:26.807Z,7.53
2022-08-30T23:16:55.591Z,7.20
2022-08-30T23:19:26.873Z,7.90
2022-08-30T23:21:55.535Z,7.57
2022-08-30T23:24:41.674Z,7.30
2022-08-30T23:27:32.071Z,7.97
2022-08-30T23:30:17.826Z,8.60
2022-08-30T23:33:04.065Z,8.20
2022-08-30T23:35:51.952Z,7.60
2022-08-30T23:38:38.180Z,8.43
2022-08-30T23:41:24.440Z,8.70
2022-08-30T23:44:19.984Z,8.50
2022-08-30T23:47:06.261Z,8.47
2022-08-30T23:49:52.338Z,8.13
2022-08-30T23:52:39.707Z,7.63
2022-08-30T23:55:26.375Z,7.13
2022-08-30T23:58:12.737Z,7.10
